This is the latest recevied weather packets stored in our database for station/object DG0LHZ-10. If no packets are shown the sender has not sent any weather packets the latest 1 day(s).
| Time | Temp. | Humidity | Pressure | Rain* | Wind** | Luminosity | Snow |
|---|---|---|---|---|---|---|---|
| 1778056481 | 17.78° C | 56% | 1006.9 hPa | - | - | - | - |
| 1778055581 | 17.78° C | 57% | 1006.8 hPa | - | - | - | - |
| 1778054681 | 17.22° C | 58% | 1006.5 hPa | - | - | - | - |
| 1778051080 | 16.67° C | 59% | 1006.5 hPa | - | - | - | - |
| 1778049280 | 16.11° C | 59% | 1006.3 hPa | - | - | - | - |
| 1778048380 | 16.11° C | 59% | 1006.2 hPa | - | - | - | - |
| 1778047480 | 16.11° C | 57% | 1006.1 hPa | - | - | - | - |
| 1778046580 | 15.56° C | 58% | 1006 hPa | - | - | - | - |
| 1778045680 | 15.56° C | 56% | 1005.8 hPa | - | - | - | - |
| 1778044780 | 15.56° C | 55% | 1005.6 hPa | - | - | - | - |
| 1778043880 | 15.56° C | 54% | 1005.5 hPa | - | - | - | - |
| 1778042980 | 15.56° C | 53% | 1005.5 hPa | - | - | - | - |
| 1778042080 | 16.11° C | 52% | 1005.3 hPa | - | - | - | - |
| 1778041180 | 16.11° C | 52% | 1005.3 hPa | - | - | - | - |
| 1778035779 | 16.67° C | 49% | 1005.8 hPa | - | - | - | - |
| 1778034879 | 16.67° C | 49% | 1006 hPa | - | - | - | - |
| 1778033979 | 16.67° C | 48% | 1006.2 hPa | - | - | - | - |
| 1778033079 | 16.67° C | 48% | 1006.3 hPa | - | - | - | - |
| 1778032179 | 16.67° C | 49% | 1006.4 hPa | - | - | - | - |
| 1778031279 | 17.22° C | 48% | 1006.7 hPa | - | - | - | - |
| 1778030379 | 17.22° C | 48% | 1006.7 hPa | - | - | - | - |
| 1778029479 | 17.22° C | 48% | 1006.7 hPa | - | - | - | - |
| 1778028579 | 17.22° C | 47% | 1006.9 hPa | - | - | - | - |
| 1778027679 | 17.78° C | 48% | 1007 hPa | - | - | - | - |
| 1778020478 | 18.89° C | 43% | 1007.9 hPa | - | - | - | - |
* Rain since midnight (hover to see other rain measurements)
** Current wind speed in m/s (hover to see current wind gust speed)